createdAt,value
2019-06-01T00:00:46.259Z,6.77
2019-06-01T00:03:15.700Z,5.40
2019-06-01T00:05:45.096Z,5.93
2019-06-01T00:08:14.466Z,5.67
2019-06-01T00:10:45.129Z,7.47
2019-06-01T00:13:14.782Z,7.40
2019-06-01T00:15:44.240Z,6.50
2019-06-01T00:18:13.661Z,5.87
2019-06-01T00:20:44.218Z,5.97
2019-06-01T00:23:13.675Z,5.33
2019-06-01T00:25:43.040Z,5.47
2019-06-01T00:28:12.386Z,5.57
2019-06-01T00:30:42.166Z,10.70
2019-06-01T00:33:11.528Z,6.10
2019-06-01T00:35:41.324Z,4.93
2019-06-01T00:38:10.769Z,6.40
2019-06-01T00:40:40.106Z,5.30
2019-06-01T00:43:09.520Z,6.93
2019-06-01T00:45:38.887Z,5.70
2019-06-01T00:48:08.249Z,8.27
2019-06-01T00:50:37.638Z,6.73
2019-06-01T00:53:06.990Z,6.47
2019-06-01T00:55:36.357Z,6.13
2019-06-01T00:58:05.815Z,5.23
2019-06-01T01:00:43.545Z,6.53
2019-06-01T01:03:06.352Z,5.20
2019-06-01T01:05:36.046Z,5.67
2019-06-01T01:08:05.479Z,5.43
2019-06-01T01:10:34.984Z,4.80
2019-06-01T01:13:08.125Z,6.67
2019-06-01T01:15:37.646Z,4.87
2019-06-01T01:18:07.531Z,5.60
2019-06-01T01:20:37.636Z,5.13
2019-06-01T01:23:07.732Z,7.30
2019-06-01T01:25:37.087Z,4.67
2019-06-01T01:28:06.537Z,5.47
2019-06-01T01:30:36.046Z,4.90
2019-06-01T01:33:05.462Z,4.97
2019-06-01T01:35:34.897Z,4.70
2019-06-01T01:38:04.444Z,7.97
2019-06-01T01:40:33.869Z,6.97
2019-06-01T01:43:03.240Z,4.73
2019-06-01T01:45:32.611Z,5.43
2019-06-01T01:48:02.029Z,5.87
2019-06-01T01:50:31.499Z,5.10
2019-06-01T01:53:00.838Z,5.23
2019-06-01T01:55:30.234Z,4.70
2019-06-01T01:57:59.647Z,5.57
2019-06-01T02:00:41.491Z,5.37
2019-06-01T02:03:11.021Z,5.23
2019-06-01T02:05:40.499Z,6.13
2019-06-01T02:08:09.981Z,6.23
2019-06-01T02:10:39.828Z,5.30
2019-06-01T02:13:09.271Z,5.93
2019-06-01T02:15:39.784Z,5.93
2019-06-01T02:18:09.232Z,5.67
2019-06-01T02:20:38.675Z,4.87
2019-06-01T02:23:08.090Z,4.60
2019-06-01T02:25:37.538Z,8.20
2019-06-01T02:28:06.989Z,4.87
2019-06-01T02:30:36.389Z,6.03
2019-06-01T02:33:05.803Z,5.33
2019-06-01T02:35:35.230Z,5.23
2019-06-01T02:38:05.779Z,5.73
2019-06-01T02:40:35.509Z,4.97
2019-06-01T02:43:06.694Z,5.40
2019-06-01T02:45:36.806Z,5.67
2019-06-01T02:48:06.773Z,5.73
2019-06-01T02:50:36.452Z,6.77
2019-06-01T02:53:05.942Z,7.97
2019-06-01T02:55:35.274Z,6.30
2019-06-01T02:58:04.908Z,4.73
2019-06-01T03:01:11.985Z,4.30
2019-06-01T03:03:41.911Z,5.20
2019-06-01T03:06:14.265Z,5.67
2019-06-01T03:08:44.671Z,4.60
2019-06-01T03:11:16.085Z,5.17
2019-06-01T03:13:47.165Z,5.50
2019-06-01T03:16:18.929Z,5.00
2019-06-01T03:18:48.842Z,5.33
2019-06-01T03:21:19.776Z,7.83
2019-06-01T03:23:49.239Z,5.13
2019-06-01T03:26:18.689Z,4.50
2019-06-01T03:28:51.613Z,5.77
2019-06-01T03:31:21.424Z,4.07
2019-06-01T03:33:50.842Z,5.67
2019-06-01T03:36:20.357Z,6.07
2019-06-01T03:38:50.217Z,4.47
2019-06-01T03:41:19.550Z,5.87
2019-06-01T03:43:48.990Z,5.67
2019-06-01T03:46:19.974Z,6.17
2019-06-01T03:48:49.301Z,7.17
2019-06-01T03:51:18.690Z,4.20
2019-06-01T03:53:48.060Z,6.17
2019-06-01T03:56:17.401Z,4.60
2019-06-01T03:58:46.739Z,4.60
2019-06-01T04:01:16.073Z,4.50
2019-06-01T04:03:45.425Z,5.60
2019-06-01T04:06:14.791Z,5.87
2019-06-01T04:08:44.132Z,7.17
2019-06-01T04:11:13.463Z,4.07
2019-06-01T04:13:42.951Z,4.80
2019-06-01T04:16:12.310Z,4.30
2019-06-01T04:18:41.647Z,4.77
2019-06-01T04:21:12.110Z,6.03
2019-06-01T04:23:41.417Z,5.27
2019-06-01T04:26:10.828Z,5.80
2019-06-01T04:28:40.313Z,5.33
2019-06-01T04:31:10.818Z,5.93
2019-06-01T04:33:40.330Z,5.00
2019-06-01T04:36:09.688Z,4.93
2019-06-01T04:38:39.061Z,9.83
2019-06-01T04:41:09.741Z,5.53
2019-06-01T04:43:39.265Z,5.70
2019-06-01T04:46:08.631Z,5.37
2019-06-01T04:48:37.982Z,5.63
2019-06-01T04:51:08.723Z,5.60
2019-06-01T04:53:38.370Z,5.70
2019-06-01T04:56:09.027Z,6.20
2019-06-01T04:58:38.596Z,9.17
2019-06-01T05:01:08.991Z,5.67
2019-06-01T05:03:41.363Z,5.27
2019-06-01T05:06:11.336Z,6.47
2019-06-01T05:08:42.061Z,5.00
2019-06-01T05:11:11.795Z,5.63
2019-06-01T05:13:41.480Z,8.27
2019-06-01T05:16:12.936Z,6.53
2019-06-01T05:18:42.004Z,8.40
2019-06-01T05:21:12.626Z,8.03
2019-06-01T05:23:42.492Z,7.93
2019-06-01T05:26:13.162Z,8.90
2019-06-01T05:28:42.668Z,10.93
2019-06-01T05:31:16.780Z,7.20
2019-06-01T05:33:43.390Z,7.20
2019-06-01T05:36:14.159Z,7.20
2019-06-01T05:38:43.797Z,7.37
2019-06-01T05:41:14.853Z,6.70
2019-06-01T05:43:44.360Z,7.93
2019-06-01T05:46:14.064Z,8.80
2019-06-01T05:48:43.620Z,9.07
2019-06-01T05:51:15.555Z,9.30
2019-06-01T05:53:44.255Z,8.90
2019-06-01T05:56:14.783Z,10.50
2019-06-01T05:58:44.339Z,9.83
2019-06-01T06:01:14.672Z,7.73
2019-06-01T06:03:44.287Z,9.03
2019-06-01T06:06:13.861Z,9.17
2019-06-01T06:08:43.239Z,8.60
2019-06-01T06:11:12.931Z,9.60
2019-06-01T06:13:42.270Z,7.93
2019-06-01T06:16:11.744Z,8.30
2019-06-01T06:18:41.316Z,8.23
2019-06-01T06:21:11.898Z,8.40
2019-06-01T06:23:41.504Z,8.57
2019-06-01T06:26:10.935Z,7.27
2019-06-01T06:28:40.263Z,7.57
2019-06-01T06:31:12.935Z,7.57
2019-06-01T06:33:55.623Z,7.17
2019-06-01T06:36:13.682Z,9.23
2019-06-01T06:38:43.362Z,7.70
2019-06-01T06:41:13.927Z,7.87
2019-06-01T06:43:43.290Z,9.53
2019-06-01T06:46:12.746Z,8.23
2019-06-01T06:48:42.216Z,7.67
2019-06-01T06:51:11.622Z,7.97
2019-06-01T06:53:41.006Z,10.47
2019-06-01T06:56:10.421Z,9.23
2019-06-01T06:58:39.805Z,7.13
2019-06-01T07:01:11.990Z,7.93
2019-06-01T07:03:40.593Z,8.07
2019-06-01T07:06:10.112Z,9.80
2019-06-01T07:08:39.549Z,6.90
2019-06-01T07:11:11.932Z,8.57
2019-06-01T07:13:40.235Z,6.87
2019-06-01T07:16:09.741Z,7.57
2019-06-01T07:18:39.186Z,8.73
2019-06-01T07:21:08.586Z,7.43
2019-06-01T07:23:37.985Z,8.13
2019-06-01T07:26:07.489Z,5.10
2019-06-01T07:28:36.921Z,7.23
2019-06-01T07:31:06.362Z,5.87
2019-06-01T07:33:35.844Z,5.23
2019-06-01T07:36:05.387Z,6.20
2019-06-01T07:38:34.840Z,5.17
2019-06-01T07:41:04.433Z,6.63
2019-06-01T07:43:33.873Z,4.73
2019-06-01T07:46:03.475Z,6.63
2019-06-01T07:48:33.406Z,4.63
2019-06-01T07:51:03.023Z,4.47
2019-06-01T07:53:32.815Z,4.73
2019-06-01T07:56:02.342Z,5.00
2019-06-01T07:58:32.958Z,3.50
2019-06-01T08:01:04.636Z,3.40
2019-06-01T08:03:35.094Z,3.13
2019-06-01T08:06:11.854Z,3.07
2019-06-01T08:08:41.311Z,2.73
2019-06-01T08:11:10.943Z,4.03
2019-06-01T08:13:40.414Z,2.83
2019-06-01T08:16:09.914Z,3.27
2019-06-01T08:18:39.354Z,2.70
2019-06-01T08:21:08.848Z,3.40
2019-06-01T08:23:38.319Z,3.47
2019-06-01T08:26:07.817Z,6.10
2019-06-01T08:28:37.230Z,2.83
2019-06-01T08:31:06.669Z,3.53
2019-06-01T08:33:36.133Z,2.63
2019-06-01T08:36:05.761Z,2.60
2019-06-01T08:38:35.231Z,5.03
2019-06-01T08:41:04.635Z,2.77
2019-06-01T08:43:34.145Z,2.67
2019-06-01T08:46:03.819Z,3.30
2019-06-01T08:48:34.084Z,3.13
2019-06-01T08:51:03.719Z,2.37
2019-06-01T08:53:34.242Z,1.83
2019-06-01T08:56:03.916Z,2.50
2019-06-01T08:58:34.594Z,2.73
2019-06-01T09:01:04.261Z,2.50
2019-06-01T09:03:35.197Z,5.03
2019-06-01T09:06:05.004Z,2.27
2019-06-01T09:08:35.168Z,2.37
2019-06-01T09:11:04.867Z,3.00
2019-06-01T09:13:35.480Z,2.63
2019-06-01T09:16:05.438Z,1.93
2019-06-01T09:18:35.873Z,2.17
2019-06-01T09:21:06.253Z,2.37
2019-06-01T09:23:37.029Z,1.80
2019-06-01T09:26:07.219Z,2.97
2019-06-01T09:28:36.730Z,1.67
2019-06-01T09:31:06.319Z,2.40
2019-06-01T09:33:36.900Z,2.33
2019-06-01T09:36:06.533Z,2.37
2019-06-01T09:38:36.183Z,2.90
2019-06-01T09:41:05.623Z,2.27
2019-06-01T09:43:35.147Z,1.80
2019-06-01T09:46:04.689Z,2.13
2019-06-01T09:48:34.120Z,2.00
2019-06-01T09:51:03.692Z,2.10
2019-06-01T09:53:34.479Z,3.60
2019-06-01T09:56:04.267Z,3.33
2019-06-01T09:58:34.585Z,2.87
2019-06-01T10:01:04.183Z,1.77
2019-06-01T10:03:34.422Z,2.77
2019-06-01T10:06:04.126Z,1.70
2019-06-01T10:08:34.327Z,1.70
2019-06-01T10:11:04.158Z,2.33
2019-06-01T10:13:34.719Z,2.20
2019-06-01T10:16:04.174Z,1.83
2019-06-01T10:18:35.144Z,2.03
2019-06-01T10:21:04.937Z,1.53
2019-06-01T10:23:34.654Z,1.63
2019-06-01T10:26:04.478Z,2.57
2019-06-01T10:28:43.399Z,1.50
2019-06-01T10:31:12.843Z,2.13
2019-06-01T10:33:43.319Z,1.70
2019-06-01T10:36:20.762Z,2.50
2019-06-01T10:38:44.092Z,2.37
2019-06-01T10:41:13.569Z,1.70
2019-06-01T10:43:43.264Z,1.73
2019-06-01T10:46:12.695Z,1.63
2019-06-01T10:48:42.266Z,1.57
2019-06-01T10:51:14.886Z,2.20
2019-06-01T10:53:44.390Z,2.40
2019-06-01T10:56:14.089Z,1.77
2019-06-01T10:58:59.162Z,2.13
2019-06-01T11:01:15.244Z,2.40
2019-06-01T11:03:44.989Z,2.00
2019-06-01T11:06:14.476Z,2.30
2019-06-01T11:08:44.003Z,1.33
2019-06-01T11:11:13.738Z,1.50
2019-06-01T11:13:43.410Z,1.50
2019-06-01T11:16:12.972Z,1.50
2019-06-01T11:18:43.582Z,2.27
2019-06-01T11:21:13.385Z,2.57
2019-06-01T11:23:46.112Z,1.87
2019-06-01T11:26:14.502Z,1.70
2019-06-01T11:28:44.433Z,2.13
2019-06-01T11:31:14.094Z,3.40
2019-06-01T11:33:44.263Z,2.03
2019-06-01T11:36:14.074Z,1.50
2019-06-01T11:38:44.874Z,2.37
2019-06-01T11:41:18.497Z,1.50
2019-06-01T11:43:46.461Z,1.70
2019-06-01T11:46:16.036Z,2.53
2019-06-01T11:48:45.607Z,1.97
2019-06-01T11:51:15.220Z,1.53
2019-06-01T11:53:45.791Z,1.53
2019-06-01T11:56:15.523Z,1.70
2019-06-01T11:58:45.597Z,1.53
2019-06-01T12:01:15.417Z,3.20
2019-06-01T12:03:46.183Z,1.23
2019-06-01T12:06:15.921Z,1.60
2019-06-01T12:08:46.348Z,2.00
2019-06-01T12:11:15.981Z,2.33
2019-06-01T12:13:46.508Z,5.07
2019-06-01T12:16:18.186Z,3.90
2019-06-01T12:18:47.736Z,1.53
2019-06-01T12:21:17.254Z,2.00
2019-06-01T12:23:47.605Z,1.50
2019-06-01T12:26:17.627Z,2.30
2019-06-01T12:28:47.975Z,2.23
2019-06-01T12:31:17.718Z,2.13
2019-06-01T12:33:48.695Z,1.40
2019-06-01T12:36:18.332Z,2.13
2019-06-01T12:38:54.004Z,1.53
2019-06-01T12:41:24.003Z,1.63
2019-06-01T12:44:11.527Z,1.30
2019-06-01T12:46:41.719Z,1.67
2019-06-01T12:49:11.500Z,1.93
2019-06-01T12:51:42.396Z,1.30
2019-06-01T12:54:12.110Z,2.40
2019-06-01T12:56:42.792Z,2.80
2019-06-01T12:59:12.631Z,1.30
2019-06-01T13:01:43.061Z,1.63
2019-06-01T13:04:12.918Z,1.40
2019-06-01T13:06:42.723Z,2.43
2019-06-01T13:09:12.342Z,1.20
2019-06-01T13:11:43.104Z,1.43
2019-06-01T13:14:12.873Z,1.37
2019-06-01T13:16:47.325Z,1.33
2019-06-01T13:19:15.390Z,1.27
2019-06-01T13:21:45.310Z,1.57
2019-06-01T13:24:15.053Z,1.90
2019-06-01T13:26:45.734Z,2.40
2019-06-01T13:29:15.356Z,1.30
2019-06-01T13:31:46.036Z,1.40
2019-06-01T13:34:15.684Z,2.50
2019-06-01T13:36:46.469Z,2.43
2019-06-01T13:39:16.507Z,1.77
2019-06-01T13:41:47.141Z,1.60
2019-06-01T13:44:16.851Z,1.50
2019-06-01T13:46:47.429Z,1.87
2019-06-01T13:49:17.209Z,2.70
2019-06-01T13:51:48.005Z,1.57
2019-06-01T13:54:17.933Z,1.43
2019-06-01T13:56:48.569Z,1.70
2019-06-01T13:59:18.383Z,2.37
2019-06-01T14:01:48.804Z,1.60
2019-06-01T14:04:18.374Z,1.40
2019-06-01T14:06:48.999Z,1.40
2019-06-01T14:09:21.605Z,1.40
2019-06-01T14:11:51.207Z,2.67
2019-06-01T14:14:21.082Z,2.27
2019-06-01T14:16:51.752Z,2.73
2019-06-01T14:19:21.387Z,2.37
2019-06-01T14:21:52.330Z,4.90
2019-06-01T14:24:22.172Z,1.70
2019-06-01T14:26:52.322Z,2.03
2019-06-01T14:29:22.187Z,2.47
2019-06-01T14:32:23.160Z,2.30
2019-06-01T14:35:27.610Z,2.13
2019-06-01T14:37:57.693Z,1.47
2019-06-01T14:40:27.438Z,1.70
2019-06-01T14:42:57.796Z,1.70
2019-06-01T14:45:27.619Z,3.23
2019-06-01T14:47:57.677Z,2.03
2019-06-01T14:50:27.335Z,1.47
2019-06-01T14:52:57.882Z,1.50
2019-06-01T14:55:27.630Z,1.40
2019-06-01T14:57:58.404Z,1.47
2019-06-01T15:00:28.662Z,1.23
2019-06-01T15:02:58.458Z,2.97
2019-06-01T15:05:27.959Z,2.90
2019-06-01T15:07:59.050Z,1.57
2019-06-01T15:10:29.031Z,2.90
2019-06-01T15:13:02.591Z,2.27
2019-06-01T15:15:29.901Z,1.93
2019-06-01T15:18:03.522Z,2.87
2019-06-01T15:20:30.852Z,2.93
2019-06-01T15:23:00.452Z,1.90
2019-06-01T15:25:30.281Z,1.63
2019-06-01T15:27:59.958Z,3.27
2019-06-01T15:30:29.619Z,1.83
2019-06-01T15:32:59.173Z,1.40
2019-06-01T15:35:28.768Z,1.97
2019-06-01T15:38:01.903Z,3.53
2019-06-01T15:40:29.544Z,1.70
2019-06-01T15:42:59.479Z,1.73
2019-06-01T15:45:29.284Z,2.60
2019-06-01T15:47:59.777Z,1.80
2019-06-01T15:50:29.544Z,2.17
2019-06-01T15:52:59.403Z,3.17
2019-06-01T15:55:28.988Z,2.83
2019-06-01T15:57:58.555Z,1.63
2019-06-01T16:00:28.118Z,2.37
2019-06-01T16:02:58.876Z,1.57
2019-06-01T16:05:28.600Z,2.17
2019-06-01T16:07:59.328Z,1.90
2019-06-01T16:10:29.053Z,2.77
2019-06-01T16:12:59.585Z,1.83
2019-06-01T16:15:29.222Z,1.60
2019-06-01T16:17:59.990Z,1.80
2019-06-01T16:20:29.724Z,3.03
2019-06-01T16:23:00.313Z,2.10
2019-06-01T16:25:30.048Z,1.57
2019-06-01T16:28:00.897Z,2.00
2019-06-01T16:30:30.639Z,1.60
2019-06-01T16:33:00.712Z,1.60
2019-06-01T16:35:30.315Z,2.80
2019-06-01T16:38:02.311Z,1.73
2019-06-01T16:40:31.232Z,2.63
2019-06-01T16:43:01.588Z,1.73
2019-06-01T16:45:31.131Z,1.63
2019-06-01T16:48:01.670Z,2.63
2019-06-01T16:50:31.377Z,2.93
2019-06-01T16:53:02.129Z,2.90
2019-06-01T16:55:31.741Z,2.23
2019-06-01T16:58:01.493Z,1.60
2019-06-01T17:00:31.168Z,1.73
2019-06-01T17:03:00.948Z,2.63
2019-06-01T17:05:30.463Z,1.63
2019-06-01T17:08:00.776Z,1.67
2019-06-01T17:10:30.389Z,3.10
2019-06-01T17:13:01.492Z,1.80
2019-06-01T17:15:31.075Z,1.50
2019-06-01T17:18:03.584Z,3.57
2019-06-01T17:20:42.720Z,1.90
2019-06-01T17:23:26.251Z,2.27
2019-06-01T17:25:43.944Z,3.10
2019-06-01T17:28:13.692Z,1.97
2019-06-01T17:30:43.410Z,2.33
2019-06-01T17:33:12.915Z,1.90
2019-06-01T17:35:42.835Z,1.73
2019-06-01T17:38:12.517Z,2.20
2019-06-01T17:40:43.337Z,1.43
2019-06-01T17:43:13.385Z,2.00
2019-06-01T17:45:43.236Z,1.70
2019-06-01T17:48:24.676Z,1.90
2019-06-01T17:50:44.119Z,2.00
2019-06-01T17:53:13.683Z,2.20
2019-06-01T17:55:43.404Z,2.47
2019-06-01T17:58:13.080Z,3.00
2019-06-01T18:00:42.866Z,3.97
2019-06-01T18:03:12.408Z,1.53
2019-06-01T18:05:42.305Z,1.60
2019-06-01T18:08:12.811Z,2.97
2019-06-01T18:10:53.082Z,1.57
2019-06-01T18:13:14.345Z,1.73
2019-06-01T18:15:43.910Z,1.90
2019-06-01T18:18:13.485Z,1.90
2019-06-01T18:20:43.184Z,2.20
2019-06-01T18:23:13.398Z,1.73
2019-06-01T18:25:43.190Z,2.43
2019-06-01T18:28:18.574Z,2.67
2019-06-01T18:30:44.080Z,2.03
2019-06-01T18:33:13.632Z,3.20
2019-06-01T18:35:44.654Z,2.67
2019-06-01T18:38:16.155Z,4.23
2019-06-01T18:40:45.840Z,1.97
2019-06-01T18:43:18.368Z,2.77
2019-06-01T18:45:48.354Z,2.77
2019-06-01T18:48:19.422Z,3.63
2019-06-01T18:50:49.135Z,2.67
2019-06-01T18:53:20.210Z,3.73
2019-06-01T18:55:49.840Z,5.17
2019-06-01T18:58:31.560Z,3.77
2019-06-01T19:01:01.137Z,3.00
2019-06-01T19:03:30.638Z,4.00
2019-06-01T19:06:00.153Z,4.73
2019-06-01T19:08:29.671Z,4.37
2019-06-01T19:10:59.152Z,5.43
2019-06-01T19:13:28.710Z,5.27
2019-06-01T19:15:58.264Z,5.73
2019-06-01T19:18:27.766Z,4.90
2019-06-01T19:20:57.333Z,5.57
2019-06-01T19:23:26.823Z,4.80
2019-06-01T19:25:56.324Z,5.80
2019-06-01T19:28:25.800Z,4.10
2019-06-01T19:30:55.631Z,5.00
2019-06-01T19:33:25.147Z,4.87
2019-06-01T19:35:54.709Z,3.90
2019-06-01T19:38:24.267Z,7.23
2019-06-01T19:40:53.763Z,7.10
2019-06-01T19:43:23.283Z,6.73
2019-06-01T19:45:52.840Z,3.93
2019-06-01T19:48:22.332Z,3.73
2019-06-01T19:50:51.814Z,4.00
2019-06-01T19:53:21.331Z,4.90
2019-06-01T19:55:50.827Z,3.37
2019-06-01T19:58:20.397Z,5.73
2019-06-01T20:00:49.864Z,4.23
2019-06-01T20:03:21.977Z,6.60
2019-06-01T20:05:50.623Z,4.87
2019-06-01T20:08:20.167Z,3.77
2019-06-01T20:10:49.646Z,5.27
2019-06-01T20:13:19.367Z,9.50
2019-06-01T20:15:48.799Z,6.40
2019-06-01T20:18:19.152Z,5.73
2019-06-01T20:20:48.784Z,8.93
2019-06-01T20:23:19.560Z,8.07
2019-06-01T20:25:49.099Z,8.27
2019-06-01T20:28:19.587Z,8.90
2019-06-01T20:30:49.547Z,5.73
2019-06-01T20:33:20.502Z,11.17
2019-06-01T20:35:50.089Z,6.93
2019-06-01T20:38:20.584Z,6.30
2019-06-01T20:40:50.163Z,9.93
2019-06-01T20:43:20.866Z,7.83
2019-06-01T20:45:50.501Z,7.17
2019-06-01T20:48:20.933Z,8.70
2019-06-01T20:50:50.654Z,6.20
2019-06-01T20:53:21.020Z,6.13
2019-06-01T20:55:50.714Z,7.23
2019-06-01T20:58:22.900Z,6.87
2019-06-01T21:00:51.502Z,6.93
2019-06-01T21:03:21.910Z,7.33
2019-06-01T21:05:51.475Z,6.60
2019-06-01T21:08:22.413Z,7.00
2019-06-01T21:10:52.046Z,7.10
2019-06-01T21:13:22.254Z,6.77
2019-06-01T21:15:51.947Z,7.83
2019-06-01T21:18:22.529Z,9.43
2019-06-01T21:20:52.238Z,6.43
2019-06-01T21:23:22.963Z,5.37
2019-06-01T21:25:52.671Z,6.70
2019-06-01T21:28:23.708Z,6.43
2019-06-01T21:30:53.654Z,7.67
2019-06-01T21:33:26.638Z,5.93
2019-06-01T21:35:54.392Z,7.47
2019-06-01T21:38:23.883Z,6.00
2019-06-01T21:40:53.359Z,7.97
2019-06-01T21:43:29.486Z,6.50
2019-06-01T21:45:54.014Z,6.83
2019-06-01T21:48:24.187Z,9.30
2019-06-01T21:50:53.995Z,7.67
2019-06-01T21:53:24.524Z,8.90
2019-06-01T21:55:54.117Z,11.90
2019-06-01T21:58:24.563Z,8.90
2019-06-01T22:00:54.206Z,11.23
2019-06-01T22:03:25.549Z,9.10
2019-06-01T22:05:55.126Z,9.40
2019-06-01T22:08:25.372Z,7.27
2019-06-01T22:10:55.105Z,8.20
2019-06-01T22:13:27.102Z,7.73
2019-06-01T22:15:55.755Z,8.03
2019-06-01T22:18:25.834Z,9.63
2019-06-01T22:20:55.412Z,8.20
2019-06-01T22:23:26.000Z,10.47
2019-06-01T22:25:55.612Z,7.97
2019-06-01T22:28:26.280Z,8.80
2019-06-01T22:30:55.960Z,8.83
2019-06-01T22:33:26.556Z,7.03
2019-06-01T22:35:56.077Z,6.07
2019-06-01T22:38:25.833Z,5.53
2019-06-01T22:40:55.533Z,6.13
2019-06-01T22:43:38.976Z,6.37
2019-06-01T22:45:56.204Z,6.83
2019-06-01T22:48:26.647Z,5.40
2019-06-01T22:50:56.201Z,5.97
2019-06-01T22:53:26.226Z,6.17
2019-06-01T22:55:55.833Z,5.87
2019-06-01T22:58:25.388Z,7.63
2019-06-01T23:00:54.846Z,6.90
2019-06-01T23:03:24.405Z,6.50
2019-06-01T23:05:53.890Z,6.57
2019-06-01T23:08:24.029Z,7.03
2019-06-01T23:10:54.864Z,6.53
2019-06-01T23:13:24.494Z,6.37
2019-06-01T23:15:54.073Z,6.03
2019-06-01T23:18:23.682Z,9.20
2019-06-01T23:20:53.119Z,6.47
2019-06-01T23:23:23.896Z,6.13
2019-06-01T23:25:53.481Z,6.13
2019-06-01T23:28:24.243Z,6.67
2019-06-01T23:30:53.731Z,5.90
2019-06-01T23:33:23.227Z,6.03
2019-06-01T23:35:52.723Z,5.73
2019-06-01T23:38:22.575Z,6.10
2019-06-01T23:40:52.156Z,6.43
2019-06-01T23:43:22.659Z,5.50
2019-06-01T23:45:52.310Z,6.63
2019-06-01T23:48:23.011Z,7.87
2019-06-01T23:50:52.709Z,6.30
2019-06-01T23:53:23.338Z,6.00
2019-06-01T23:55:53.026Z,6.20
2019-06-01T23:58:23.921Z,9.20
